sensor_id;sensor_type;location;lat;lon;timestamp;P1;durP1;ratioP1;P2;durP2;ratioP2
35558;SDS011;21661;50.794;-1.066;2023-05-21T00:00:14;4.10;;;2.42;;
35558;SDS011;21661;50.794;-1.066;2023-05-21T00:02:40;9.48;;;2.40;;
35558;SDS011;21661;50.794;-1.066;2023-05-21T00:05:06;5.53;;;2.65;;
35558;SDS011;21661;50.794;-1.066;2023-05-21T00:07:37;5.68;;;2.50;;
35558;SDS011;21661;50.794;-1.066;2023-05-21T00:10:03;6.32;;;2.40;;
35558;SDS011;21661;50.794;-1.066;2023-05-21T00:12:28;5.32;;;2.15;;
35558;SDS011;21661;50.794;-1.066;2023-05-21T00:14:56;7.50;;;4.68;;
35558;SDS011;21661;50.794;-1.066;2023-05-21T00:17:22;17.50;;;11.00;;
35558;SDS011;21661;50.794;-1.066;2023-05-21T00:19:47;17.38;;;9.15;;
35558;SDS011;21661;50.794;-1.066;2023-05-21T00:22:14;10.02;;;5.38;;
35558;SDS011;21661;50.794;-1.066;2023-05-21T00:24:40;10.05;;;3.97;;
35558;SDS011;21661;50.794;-1.066;2023-05-21T00:27:05;7.30;;;4.35;;
35558;SDS011;21661;50.794;-1.066;2023-05-21T00:29:31;10.25;;;3.50;;
35558;SDS011;21661;50.794;-1.066;2023-05-21T00:31:56;6.15;;;2.45;;
35558;SDS011;21661;50.794;-1.066;2023-05-21T00:34:22;6.32;;;2.58;;
35558;SDS011;21661;50.794;-1.066;2023-05-21T00:36:48;6.95;;;2.17;;
35558;SDS011;21661;50.794;-1.066;2023-05-21T00:39:13;6.97;;;2.75;;
35558;SDS011;21661;50.794;-1.066;2023-05-21T00:41:39;6.35;;;2.60;;
35558;SDS011;21661;50.794;-1.066;2023-05-21T00:44:07;5.05;;;2.58;;
35558;SDS011;21661;50.794;-1.066;2023-05-21T00:46:32;5.88;;;2.50;;
35558;SDS011;21661;50.794;-1.066;2023-05-21T00:48:58;5.65;;;2.50;;
35558;SDS011;21661;50.794;-1.066;2023-05-21T00:51:24;6.90;;;2.60;;
35558;SDS011;21661;50.794;-1.066;2023-05-21T00:53:54;5.15;;;2.42;;
35558;SDS011;21661;50.794;-1.066;2023-05-21T00:56:20;4.72;;;2.22;;
35558;SDS011;21661;50.794;-1.066;2023-05-21T00:58:47;6.25;;;2.58;;
35558;SDS011;21661;50.794;-1.066;2023-05-21T01:01:15;8.57;;;3.17;;
35558;SDS011;21661;50.794;-1.066;2023-05-21T01:03:42;8.45;;;2.30;;
35558;SDS011;21661;50.794;-1.066;2023-05-21T01:06:08;6.75;;;2.55;;
35558;SDS011;21661;50.794;-1.066;2023-05-21T01:08:35;5.72;;;2.20;;
35558;SDS011;21661;50.794;-1.066;2023-05-21T01:11:02;5.10;;;2.35;;
35558;SDS011;21661;50.794;-1.066;2023-05-21T01:13:30;7.68;;;2.10;;
35558;SDS011;21661;50.794;-1.066;2023-05-21T01:15:58;4.75;;;2.45;;
35558;SDS011;21661;50.794;-1.066;2023-05-21T01:18:25;6.30;;;2.70;;
35558;SDS011;21661;50.794;-1.066;2023-05-21T01:20:50;5.75;;;2.28;;
35558;SDS011;21661;50.794;-1.066;2023-05-21T01:23:17;8.23;;;2.58;;
35558;SDS011;21661;50.794;-1.066;2023-05-21T01:25:44;6.97;;;2.63;;
35558;SDS011;21661;50.794;-1.066;2023-05-21T01:28:10;5.65;;;2.65;;
35558;SDS011;21661;50.794;-1.066;2023-05-21T01:30:37;4.18;;;2.13;;
35558;SDS011;21661;50.794;-1.066;2023-05-21T01:33:15;9.13;;;2.75;;
35558;SDS011;21661;50.794;-1.066;2023-05-21T01:35:50;8.70;;;2.80;;
35558;SDS011;21661;50.794;-1.066;2023-05-21T01:43:28;6.88;;;2.40;;
35558;SDS011;21661;50.794;-1.066;2023-05-21T01:45:58;4.35;;;2.22;;
35558;SDS011;21661;50.794;-1.066;2023-05-21T01:48:26;4.68;;;2.45;;
35558;SDS011;21661;50.794;-1.066;2023-05-21T01:50:53;4.85;;;2.33;;
35558;SDS011;21661;50.794;-1.066;2023-05-21T01:53:21;7.13;;;2.33;;
35558;SDS011;21661;50.794;-1.066;2023-05-21T01:55:47;6.47;;;2.75;;
35558;SDS011;21661;50.794;-1.066;2023-05-21T01:58:13;5.50;;;2.63;;
35558;SDS011;21661;50.794;-1.066;2023-05-21T02:00:40;7.50;;;2.22;;
35558;SDS011;21661;50.794;-1.066;2023-05-21T02:03:06;5.80;;;2.53;;
35558;SDS011;21661;50.794;-1.066;2023-05-21T02:05:32;8.00;;;2.58;;
35558;SDS011;21661;50.794;-1.066;2023-05-21T02:07:59;5.60;;;2.50;;
35558;SDS011;21661;50.794;-1.066;2023-05-21T02:10:25;6.22;;;2.45;;
35558;SDS011;21661;50.794;-1.066;2023-05-21T02:12:51;8.60;;;2.63;;
35558;SDS011;21661;50.794;-1.066;2023-05-21T02:15:17;7.68;;;2.60;;
35558;SDS011;21661;50.794;-1.066;2023-05-21T02:17:43;6.15;;;2.78;;
35558;SDS011;21661;50.794;-1.066;2023-05-21T02:20:12;7.95;;;2.58;;
35558;SDS011;21661;50.794;-1.066;2023-05-21T02:22:47;6.68;;;2.55;;
35558;SDS011;21661;50.794;-1.066;2023-05-21T02:25:14;6.68;;;3.05;;
35558;SDS011;21661;50.794;-1.066;2023-05-21T02:27:41;8.20;;;3.00;;
35558;SDS011;21661;50.794;-1.066;2023-05-21T02:30:08;7.38;;;2.83;;
35558;SDS011;21661;50.794;-1.066;2023-05-21T02:32:35;7.10;;;2.70;;
35558;SDS011;21661;50.794;-1.066;2023-05-21T02:35:01;7.35;;;2.60;;
35558;SDS011;21661;50.794;-1.066;2023-05-21T02:37:28;9.02;;;2.85;;
35558;SDS011;21661;50.794;-1.066;2023-05-21T02:39:57;5.72;;;2.78;;
35558;SDS011;21661;50.794;-1.066;2023-05-21T02:42:24;5.50;;;2.45;;
35558;SDS011;21661;50.794;-1.066;2023-05-21T02:44:50;5.93;;;2.60;;
35558;SDS011;21661;50.794;-1.066;2023-05-21T02:47:17;7.20;;;3.05;;
35558;SDS011;21661;50.794;-1.066;2023-05-21T02:49:43;6.25;;;2.63;;
35558;SDS011;21661;50.794;-1.066;2023-05-21T02:52:09;6.15;;;2.70;;
35558;SDS011;21661;50.794;-1.066;2023-05-21T02:54:35;10.48;;;2.65;;
35558;SDS011;21661;50.794;-1.066;2023-05-21T02:57:00;5.80;;;2.50;;
35558;SDS011;21661;50.794;-1.066;2023-05-21T02:59:26;7.63;;;2.60;;
35558;SDS011;21661;50.794;-1.066;2023-05-21T03:01:52;3.40;;;2.30;;
35558;SDS011;21661;50.794;-1.066;2023-05-21T03:04:17;5.75;;;2.70;;
35558;SDS011;21661;50.794;-1.066;2023-05-21T03:06:46;8.52;;;3.35;;
35558;SDS011;21661;50.794;-1.066;2023-05-21T03:09:18;11.10;;;3.03;;
35558;SDS011;21661;50.794;-1.066;2023-05-21T03:11:45;7.78;;;3.72;;
35558;SDS011;21661;50.794;-1.066;2023-05-21T03:14:11;8.77;;;3.20;;
35558;SDS011;21661;50.794;-1.066;2023-05-21T03:16:37;9.18;;;3.40;;
35558;SDS011;21661;50.794;-1.066;2023-05-21T03:19:05;9.85;;;3.42;;
35558;SDS011;21661;50.794;-1.066;2023-05-21T03:21:32;9.82;;;3.63;;
35558;SDS011;21661;50.794;-1.066;2023-05-21T03:23:57;9.77;;;3.35;;
35558;SDS011;21661;50.794;-1.066;2023-05-21T03:26:26;8.13;;;3.42;;
35558;SDS011;21661;50.794;-1.066;2023-05-21T03:28:52;9.00;;;3.53;;
35558;SDS011;21661;50.794;-1.066;2023-05-21T03:31:18;8.63;;;3.72;;
35558;SDS011;21661;50.794;-1.066;2023-05-21T03:33:44;7.68;;;3.72;;
35558;SDS011;21661;50.794;-1.066;2023-05-21T03:36:09;7.20;;;3.67;;
35558;SDS011;21661;50.794;-1.066;2023-05-21T03:38:35;9.30;;;3.70;;
35558;SDS011;21661;50.794;-1.066;2023-05-21T03:41:00;9.10;;;4.00;;
35558;SDS011;21661;50.794;-1.066;2023-05-21T03:43:26;8.43;;;3.83;;
35558;SDS011;21661;50.794;-1.066;2023-05-21T03:45:53;11.05;;;3.95;;
35558;SDS011;21661;50.794;-1.066;2023-05-21T03:48:19;9.90;;;3.42;;
35558;SDS011;21661;50.794;-1.066;2023-05-21T03:50:44;11.55;;;4.35;;
35558;SDS011;21661;50.794;-1.066;2023-05-21T03:53:10;6.82;;;3.47;;
35558;SDS011;21661;50.794;-1.066;2023-05-21T03:55:36;8.00;;;3.88;;
35558;SDS011;21661;50.794;-1.066;2023-05-21T03:58:02;8.60;;;3.92;;
35558;SDS011;21661;50.794;-1.066;2023-05-21T04:00:28;9.75;;;4.28;;
35558;SDS011;21661;50.794;-1.066;2023-05-21T04:02:53;11.35;;;4.00;;
35558;SDS011;21661;50.794;-1.066;2023-05-21T04:05:19;9.02;;;3.97;;
35558;SDS011;21661;50.794;-1.066;2023-05-21T04:07:45;9.60;;;3.85;;
35558;SDS011;21661;50.794;-1.066;2023-05-21T04:10:10;8.77;;;3.83;;
35558;SDS011;21661;50.794;-1.066;2023-05-21T04:12:37;8.05;;;4.47;;
35558;SDS011;21661;50.794;-1.066;2023-05-21T04:15:02;10.15;;;4.38;;
35558;SDS011;21661;50.794;-1.066;2023-05-21T04:17:28;8.30;;;3.55;;
35558;SDS011;21661;50.794;-1.066;2023-05-21T04:19:54;9.55;;;4.45;;
35558;SDS011;21661;50.794;-1.066;2023-05-21T04:22:19;9.13;;;3.90;;
35558;SDS011;21661;50.794;-1.066;2023-05-21T04:24:47;10.90;;;4.00;;
35558;SDS011;21661;50.794;-1.066;2023-05-21T04:27:13;8.75;;;3.88;;
35558;SDS011;21661;50.794;-1.066;2023-05-21T04:29:40;11.18;;;4.20;;
35558;SDS011;21661;50.794;-1.066;2023-05-21T04:32:06;10.50;;;4.13;;
35558;SDS011;21661;50.794;-1.066;2023-05-21T04:34:33;8.50;;;4.50;;
35558;SDS011;21661;50.794;-1.066;2023-05-21T04:36:59;13.15;;;4.30;;
35558;SDS011;21661;50.794;-1.066;2023-05-21T04:39:26;12.90;;;5.28;;
35558;SDS011;21661;50.794;-1.066;2023-05-21T04:41:52;12.13;;;5.15;;
35558;SDS011;21661;50.794;-1.066;2023-05-21T04:44:20;9.82;;;4.90;;
35558;SDS011;21661;50.794;-1.066;2023-05-21T04:46:46;9.80;;;4.50;;
35558;SDS011;21661;50.794;-1.066;2023-05-21T04:49:13;17.20;;;4.80;;
35558;SDS011;21661;50.794;-1.066;2023-05-21T04:51:39;13.02;;;5.20;;
35558;SDS011;21661;50.794;-1.066;2023-05-21T04:54:05;11.30;;;4.88;;
35558;SDS011;21661;50.794;-1.066;2023-05-21T04:56:31;13.50;;;5.28;;
35558;SDS011;21661;50.794;-1.066;2023-05-21T04:58:57;15.45;;;5.30;;
35558;SDS011;21661;50.794;-1.066;2023-05-21T05:01:23;10.63;;;5.07;;
35558;SDS011;21661;50.794;-1.066;2023-05-21T05:03:50;11.23;;;5.18;;
35558;SDS011;21661;50.794;-1.066;2023-05-21T05:06:16;10.10;;;4.97;;
35558;SDS011;21661;50.794;-1.066;2023-05-21T05:08:43;11.38;;;5.20;;
35558;SDS011;21661;50.794;-1.066;2023-05-21T05:11:10;12.93;;;4.85;;
35558;SDS011;21661;50.794;-1.066;2023-05-21T05:13:36;13.15;;;5.13;;
35558;SDS011;21661;50.794;-1.066;2023-05-21T05:16:03;15.00;;;5.10;;
35558;SDS011;21661;50.794;-1.066;2023-05-21T05:18:30;11.55;;;4.63;;
35558;SDS011;21661;50.794;-1.066;2023-05-21T05:20:56;10.23;;;5.45;;
35558;SDS011;21661;50.794;-1.066;2023-05-21T05:23:21;15.68;;;5.07;;
35558;SDS011;21661;50.794;-1.066;2023-05-21T05:25:47;12.13;;;5.18;;
35558;SDS011;21661;50.794;-1.066;2023-05-21T05:28:12;11.45;;;4.80;;
35558;SDS011;21661;50.794;-1.066;2023-05-21T05:30:38;13.35;;;4.90;;
35558;SDS011;21661;50.794;-1.066;2023-05-21T05:33:04;11.32;;;4.93;;
35558;SDS011;21661;50.794;-1.066;2023-05-21T05:35:29;14.40;;;5.00;;
35558;SDS011;21661;50.794;-1.066;2023-05-21T05:37:55;13.80;;;4.90;;
35558;SDS011;21661;50.794;-1.066;2023-05-21T05:40:20;15.30;;;5.72;;
35558;SDS011;21661;50.794;-1.066;2023-05-21T05:42:46;14.68;;;5.80;;
35558;SDS011;21661;50.794;-1.066;2023-05-21T05:45:13;11.43;;;4.93;;
35558;SDS011;21661;50.794;-1.066;2023-05-21T05:47:39;11.77;;;5.47;;
35558;SDS011;21661;50.794;-1.066;2023-05-21T05:50:05;12.32;;;5.10;;
35558;SDS011;21661;50.794;-1.066;2023-05-21T05:52:30;11.45;;;5.45;;
35558;SDS011;21661;50.794;-1.066;2023-05-21T05:54:56;11.30;;;4.97;;
35558;SDS011;21661;50.794;-1.066;2023-05-21T05:57:22;9.07;;;5.13;;
35558;SDS011;21661;50.794;-1.066;2023-05-21T05:59:47;10.82;;;5.07;;
35558;SDS011;21661;50.794;-1.066;2023-05-21T06:02:13;13.68;;;5.03;;
35558;SDS011;21661;50.794;-1.066;2023-05-21T06:04:38;13.45;;;4.82;;
35558;SDS011;21661;50.794;-1.066;2023-05-21T06:07:04;14.57;;;4.60;;
35558;SDS011;21661;50.794;-1.066;2023-05-21T06:09:29;12.07;;;4.72;;
35558;SDS011;21661;50.794;-1.066;2023-05-21T06:11:55;13.18;;;5.32;;
35558;SDS011;21661;50.794;-1.066;2023-05-21T06:14:21;10.25;;;4.18;;
35558;SDS011;21661;50.794;-1.066;2023-05-21T06:16:46;8.77;;;4.43;;
35558;SDS011;21661;50.794;-1.066;2023-05-21T06:19:12;12.48;;;4.93;;
35558;SDS011;21661;50.794;-1.066;2023-05-21T06:21:37;12.38;;;4.78;;
35558;SDS011;21661;50.794;-1.066;2023-05-21T06:24:03;10.18;;;4.63;;
35558;SDS011;21661;50.794;-1.066;2023-05-21T06:26:29;10.95;;;4.40;;
35558;SDS011;21661;50.794;-1.066;2023-05-21T06:28:54;11.10;;;4.35;;
35558;SDS011;21661;50.794;-1.066;2023-05-21T06:31:20;13.63;;;5.28;;
35558;SDS011;21661;50.794;-1.066;2023-05-21T06:33:46;9.88;;;4.22;;
35558;SDS011;21661;50.794;-1.066;2023-05-21T06:36:13;9.35;;;4.32;;
35558;SDS011;21661;50.794;-1.066;2023-05-21T06:38:39;12.90;;;4.78;;
35558;SDS011;21661;50.794;-1.066;2023-05-21T06:41:05;14.00;;;5.22;;
35558;SDS011;21661;50.794;-1.066;2023-05-21T06:43:30;9.02;;;4.85;;
35558;SDS011;21661;50.794;-1.066;2023-05-21T06:45:56;8.55;;;5.13;;
35558;SDS011;21661;50.794;-1.066;2023-05-21T06:48:21;9.57;;;4.03;;
35558;SDS011;21661;50.794;-1.066;2023-05-21T06:50:47;10.65;;;4.85;;
35558;SDS011;21661;50.794;-1.066;2023-05-21T06:53:13;8.27;;;4.22;;
35558;SDS011;21661;50.794;-1.066;2023-05-21T06:55:40;11.38;;;4.07;;
35558;SDS011;21661;50.794;-1.066;2023-05-21T06:58:09;9.43;;;4.50;;
35558;SDS011;21661;50.794;-1.066;2023-05-21T07:00:37;8.15;;;4.10;;
35558;SDS011;21661;50.794;-1.066;2023-05-21T07:03:02;9.40;;;4.20;;
35558;SDS011;21661;50.794;-1.066;2023-05-21T07:05:28;8.93;;;4.28;;
35558;SDS011;21661;50.794;-1.066;2023-05-21T07:07:54;11.95;;;4.00;;
35558;SDS011;21661;50.794;-1.066;2023-05-21T07:10:19;8.20;;;3.97;;
35558;SDS011;21661;50.794;-1.066;2023-05-21T07:12:45;9.88;;;3.80;;
35558;SDS011;21661;50.794;-1.066;2023-05-21T07:15:10;8.60;;;4.18;;
35558;SDS011;21661;50.794;-1.066;2023-05-21T07:17:36;11.02;;;3.67;;
35558;SDS011;21661;50.794;-1.066;2023-05-21T07:20:02;9.70;;;4.10;;
35558;SDS011;21661;50.794;-1.066;2023-05-21T07:22:32;9.48;;;3.38;;
35558;SDS011;21661;50.794;-1.066;2023-05-21T07:24:58;7.20;;;3.55;;
35558;SDS011;21661;50.794;-1.066;2023-05-21T07:27:23;9.70;;;4.10;;
35558;SDS011;21661;50.794;-1.066;2023-05-21T07:29:49;9.40;;;3.63;;
35558;SDS011;21661;50.794;-1.066;2023-05-21T07:32:14;8.88;;;3.53;;
35558;SDS011;21661;50.794;-1.066;2023-05-21T07:34:40;6.70;;;3.88;;
35558;SDS011;21661;50.794;-1.066;2023-05-21T07:37:06;6.78;;;3.60;;
35558;SDS011;21661;50.794;-1.066;2023-05-21T07:39:31;9.10;;;3.83;;
35558;SDS011;21661;50.794;-1.066;2023-05-21T07:41:57;6.72;;;3.53;;
35558;SDS011;21661;50.794;-1.066;2023-05-21T07:44:22;8.10;;;3.72;;
35558;SDS011;21661;50.794;-1.066;2023-05-21T07:46:48;9.75;;;3.40;;
35558;SDS011;21661;50.794;-1.066;2023-05-21T07:49:14;8.02;;;3.30;;
35558;SDS011;21661;50.794;-1.066;2023-05-21T07:51:41;7.18;;;3.40;;
35558;SDS011;21661;50.794;-1.066;2023-05-21T07:54:07;8.27;;;3.25;;
35558;SDS011;21661;50.794;-1.066;2023-05-21T07:56:33;9.02;;;2.90;;
35558;SDS011;21661;50.794;-1.066;2023-05-21T07:58:59;8.85;;;2.80;;
35558;SDS011;21661;50.794;-1.066;2023-05-21T08:01:26;8.68;;;2.75;;
35558;SDS011;21661;50.794;-1.066;2023-05-21T08:03:53;12.43;;;3.10;;
35558;SDS011;21661;50.794;-1.066;2023-05-21T08:06:19;7.75;;;3.30;;
35558;SDS011;21661;50.794;-1.066;2023-05-21T08:08:46;7.25;;;2.75;;
35558;SDS011;21661;50.794;-1.066;2023-05-21T08:11:11;4.80;;;2.72;;
35558;SDS011;21661;50.794;-1.066;2023-05-21T08:13:37;4.15;;;2.17;;
35558;SDS011;21661;50.794;-1.066;2023-05-21T08:16:03;6.25;;;2.80;;
35558;SDS011;21661;50.794;-1.066;2023-05-21T08:18:29;6.47;;;2.30;;
35558;SDS011;21661;50.794;-1.066;2023-05-21T08:20:55;4.95;;;2.40;;
35558;SDS011;21661;50.794;-1.066;2023-05-21T08:23:21;5.63;;;2.20;;
35558;SDS011;21661;50.794;-1.066;2023-05-21T08:25:46;8.77;;;2.70;;
35558;SDS011;21661;50.794;-1.066;2023-05-21T08:28:12;6.18;;;2.17;;
35558;SDS011;21661;50.794;-1.066;2023-05-21T08:30:37;6.35;;;2.00;;
35558;SDS011;21661;50.794;-1.066;2023-05-21T08:33:03;4.28;;;2.22;;
35558;SDS011;21661;50.794;-1.066;2023-05-21T08:35:28;6.45;;;2.47;;
35558;SDS011;21661;50.794;-1.066;2023-05-21T08:37:54;4.63;;;2.05;;
35558;SDS011;21661;50.794;-1.066;2023-05-21T08:40:20;5.18;;;2.20;;
35558;SDS011;21661;50.794;-1.066;2023-05-21T08:42:46;4.75;;;1.80;;
35558;SDS011;21661;50.794;-1.066;2023-05-21T08:45:13;7.03;;;2.00;;
35558;SDS011;21661;50.794;-1.066;2023-05-21T08:47:44;5.85;;;1.70;;
35558;SDS011;21661;50.794;-1.066;2023-05-21T08:50:13;4.05;;;1.52;;
35558;SDS011;21661;50.794;-1.066;2023-05-21T08:52:41;4.68;;;1.92;;
35558;SDS011;21661;50.794;-1.066;2023-05-21T08:55:07;12.32;;;2.30;;
35558;SDS011;21661;50.794;-1.066;2023-05-21T08:57:33;4.88;;;2.05;;
35558;SDS011;21661;50.794;-1.066;2023-05-21T08:59:59;4.60;;;1.70;;
35558;SDS011;21661;50.794;-1.066;2023-05-21T09:02:30;6.13;;;2.05;;
35558;SDS011;21661;50.794;-1.066;2023-05-21T09:04:58;5.55;;;1.80;;
35558;SDS011;21661;50.794;-1.066;2023-05-21T09:07:27;4.70;;;2.13;;
35558;SDS011;21661;50.794;-1.066;2023-05-21T09:10:02;5.63;;;1.85;;
35558;SDS011;21661;50.794;-1.066;2023-05-21T09:12:32;6.05;;;1.80;;
35558;SDS011;21661;50.794;-1.066;2023-05-21T09:14:59;4.97;;;2.05;;
35558;SDS011;21661;50.794;-1.066;2023-05-21T09:17:26;4.10;;;2.13;;
35558;SDS011;21661;50.794;-1.066;2023-05-21T09:20:04;4.57;;;1.90;;
35558;SDS011;21661;50.794;-1.066;2023-05-21T09:22:34;6.28;;;2.20;;
35558;SDS011;21661;50.794;-1.066;2023-05-21T09:25:03;4.60;;;1.92;;
35558;SDS011;21661;50.794;-1.066;2023-05-21T09:27:31;7.00;;;2.30;;
35558;SDS011;21661;50.794;-1.066;2023-05-21T09:29:56;10.57;;;4.10;;
35558;SDS011;21661;50.794;-1.066;2023-05-21T09:32:22;7.00;;;2.88;;
35558;SDS011;21661;50.794;-1.066;2023-05-21T09:34:47;7.93;;;2.50;;
35558;SDS011;21661;50.794;-1.066;2023-05-21T09:37:14;4.25;;;2.38;;
35558;SDS011;21661;50.794;-1.066;2023-05-21T09:39:40;7.18;;;2.08;;
35558;SDS011;21661;50.794;-1.066;2023-05-21T09:42:07;9.18;;;2.15;;
35558;SDS011;21661;50.794;-1.066;2023-05-21T09:44:33;6.15;;;2.50;;
35558;SDS011;21661;50.794;-1.066;2023-05-21T09:46:59;4.38;;;2.13;;
35558;SDS011;21661;50.794;-1.066;2023-05-21T09:49:26;6.78;;;2.60;;
35558;SDS011;21661;50.794;-1.066;2023-05-21T09:51:55;8.75;;;2.45;;
35558;SDS011;21661;50.794;-1.066;2023-05-21T09:54:21;4.97;;;2.30;;
35558;SDS011;21661;50.794;-1.066;2023-05-21T09:56:48;4.68;;;2.60;;
35558;SDS011;21661;50.794;-1.066;2023-05-21T09:59:17;8.43;;;3.00;;
35558;SDS011;21661;50.794;-1.066;2023-05-21T10:01:43;4.50;;;2.33;;
35558;SDS011;21661;50.794;-1.066;2023-05-21T10:04:09;4.32;;;2.22;;
35558;SDS011;21661;50.794;-1.066;2023-05-21T10:06:36;8.18;;;2.55;;
35558;SDS011;21661;50.794;-1.066;2023-05-21T10:09:08;6.30;;;2.83;;
35558;SDS011;21661;50.794;-1.066;2023-05-21T10:11:35;5.45;;;2.75;;
35558;SDS011;21661;50.794;-1.066;2023-05-21T10:14:04;6.80;;;3.90;;
35558;SDS011;21661;50.794;-1.066;2023-05-21T10:16:32;4.97;;;2.78;;
35558;SDS011;21661;50.794;-1.066;2023-05-21T10:18:59;6.72;;;2.72;;
35558;SDS011;21661;50.794;-1.066;2023-05-21T10:21:25;9.05;;;2.83;;
35558;SDS011;21661;50.794;-1.066;2023-05-21T10:23:50;5.93;;;2.78;;
35558;SDS011;21661;50.794;-1.066;2023-05-21T10:26:18;10.23;;;2.53;;
35558;SDS011;21661;50.794;-1.066;2023-05-21T10:28:45;6.53;;;2.70;;
35558;SDS011;21661;50.794;-1.066;2023-05-21T10:31:12;4.28;;;2.22;;
35558;SDS011;21661;50.794;-1.066;2023-05-21T10:33:38;6.22;;;2.42;;
35558;SDS011;21661;50.794;-1.066;2023-05-21T10:36:06;5.15;;;2.60;;
35558;SDS011;21661;50.794;-1.066;2023-05-21T10:38:32;6.13;;;2.30;;
35558;SDS011;21661;50.794;-1.066;2023-05-21T10:40:59;4.20;;;2.30;;
35558;SDS011;21661;50.794;-1.066;2023-05-21T10:46:44;8.35;;;2.40;;
35558;SDS011;21661;50.794;-1.066;2023-05-21T11:00:49;4.72;;;2.15;;
35558;SDS011;21661;50.794;-1.066;2023-05-21T11:03:17;4.43;;;2.08;;
35558;SDS011;21661;50.794;-1.066;2023-05-21T11:05:51;3.85;;;2.55;;
35558;SDS011;21661;50.794;-1.066;2023-05-21T11:10:55;5.53;;;2.60;;
35558;SDS011;21661;50.794;-1.066;2023-05-21T11:13:22;6.35;;;2.17;;
35558;SDS011;21661;50.794;-1.066;2023-05-21T11:23:54;6.20;;;2.38;;
35558;SDS011;21661;50.794;-1.066;2023-05-21T11:31:32;3.80;;;2.47;;
35558;SDS011;21661;50.794;-1.066;2023-05-21T11:36:40;4.47;;;2.42;;
35558;SDS011;21661;50.794;-1.066;2023-05-21T11:39:08;7.05;;;2.53;;
35558;SDS011;21661;50.794;-1.066;2023-05-21T11:44:44;4.45;;;1.98;;
35558;SDS011;21661;50.794;-1.066;2023-05-21T11:47:11;4.70;;;2.17;;
35558;SDS011;21661;50.794;-1.066;2023-05-21T11:49:42;4.45;;;2.03;;
35558;SDS011;21661;50.794;-1.066;2023-05-21T11:52:08;4.68;;;2.30;;
35558;SDS011;21661;50.794;-1.066;2023-05-21T11:54:41;4.78;;;2.47;;
35558;SDS011;21661;50.794;-1.066;2023-05-21T11:57:10;6.03;;;2.45;;
35558;SDS011;21661;50.794;-1.066;2023-05-21T11:59:39;4.95;;;2.58;;
35558;SDS011;21661;50.794;-1.066;2023-05-21T12:02:05;4.88;;;2.30;;
35558;SDS011;21661;50.794;-1.066;2023-05-21T12:04:32;7.20;;;2.45;;
35558;SDS011;21661;50.794;-1.066;2023-05-21T12:07:06;4.65;;;2.60;;
35558;SDS011;21661;50.794;-1.066;2023-05-21T12:12:08;5.82;;;2.78;;
35558;SDS011;21661;50.794;-1.066;2023-05-21T12:14:35;4.07;;;2.65;;
35558;SDS011;21661;50.794;-1.066;2023-05-21T12:17:02;7.78;;;3.00;;
35558;SDS011;21661;50.794;-1.066;2023-05-21T12:19:35;4.53;;;2.50;;
35558;SDS011;21661;50.794;-1.066;2023-05-21T12:22:05;4.97;;;2.70;;
35558;SDS011;21661;50.794;-1.066;2023-05-21T12:24:31;5.60;;;2.13;;
35558;SDS011;21661;50.794;-1.066;2023-05-21T12:26:58;5.95;;;2.25;;
35558;SDS011;21661;50.794;-1.066;2023-05-21T12:29:26;6.80;;;2.70;;
35558;SDS011;21661;50.794;-1.066;2023-05-21T12:31:52;4.90;;;2.42;;
35558;SDS011;21661;50.794;-1.066;2023-05-21T12:37:16;6.82;;;2.92;;
35558;SDS011;21661;50.794;-1.066;2023-05-21T12:39:51;5.13;;;2.80;;
35558;SDS011;21661;50.794;-1.066;2023-05-21T12:42:25;6.57;;;2.33;;
35558;SDS011;21661;50.794;-1.066;2023-05-21T12:44:52;5.57;;;2.30;;
35558;SDS011;21661;50.794;-1.066;2023-05-21T12:47:18;4.97;;;2.55;;
35558;SDS011;21661;50.794;-1.066;2023-05-21T12:49:52;6.38;;;2.38;;
35558;SDS011;21661;50.794;-1.066;2023-05-21T12:54:48;9.02;;;2.95;;
35558;SDS011;21661;50.794;-1.066;2023-05-21T12:57:16;4.30;;;2.22;;
35558;SDS011;21661;50.794;-1.066;2023-05-21T12:59:50;7.68;;;2.40;;
35558;SDS011;21661;50.794;-1.066;2023-05-21T13:02:23;8.18;;;2.85;;
35558;SDS011;21661;50.794;-1.066;2023-05-21T13:04:53;4.35;;;2.50;;
35558;SDS011;21661;50.794;-1.066;2023-05-21T13:07:20;5.70;;;2.65;;
35558;SDS011;21661;50.794;-1.066;2023-05-21T13:09:45;8.88;;;2.78;;
35558;SDS011;21661;50.794;-1.066;2023-05-21T13:12:11;7.10;;;3.00;;
35558;SDS011;21661;50.794;-1.066;2023-05-21T13:14:37;4.75;;;2.75;;
35558;SDS011;21661;50.794;-1.066;2023-05-21T13:17:02;6.35;;;3.13;;
35558;SDS011;21661;50.794;-1.066;2023-05-21T13:19:28;8.85;;;3.30;;
35558;SDS011;21661;50.794;-1.066;2023-05-21T13:21:54;6.90;;;3.50;;
35558;SDS011;21661;50.794;-1.066;2023-05-21T13:24:20;9.10;;;3.00;;
35558;SDS011;21661;50.794;-1.066;2023-05-21T13:26:45;6.82;;;3.30;;
35558;SDS011;21661;50.794;-1.066;2023-05-21T13:29:11;9.07;;;3.40;;
35558;SDS011;21661;50.794;-1.066;2023-05-21T13:31:39;6.60;;;3.00;;
35558;SDS011;21661;50.794;-1.066;2023-05-21T13:34:05;7.88;;;3.60;;
35558;SDS011;21661;50.794;-1.066;2023-05-21T13:36:31;7.95;;;3.92;;
35558;SDS011;21661;50.794;-1.066;2023-05-21T13:38:57;5.20;;;3.47;;
35558;SDS011;21661;50.794;-1.066;2023-05-21T13:41:23;6.57;;;3.70;;
35558;SDS011;21661;50.794;-1.066;2023-05-21T13:43:48;9.38;;;3.42;;
35558;SDS011;21661;50.794;-1.066;2023-05-21T13:46:14;13.00;;;3.90;;
35558;SDS011;21661;50.794;-1.066;2023-05-21T13:48:40;9.70;;;3.60;;
35558;SDS011;21661;50.794;-1.066;2023-05-21T13:51:07;7.32;;;4.05;;
35558;SDS011;21661;50.794;-1.066;2023-05-21T13:53:33;7.28;;;3.38;;
35558;SDS011;21661;50.794;-1.066;2023-05-21T13:55:58;8.02;;;3.97;;
35558;SDS011;21661;50.794;-1.066;2023-05-21T13:58:24;8.13;;;4.07;;
35558;SDS011;21661;50.794;-1.066;2023-05-21T14:00:51;7.07;;;3.85;;
35558;SDS011;21661;50.794;-1.066;2023-05-21T14:03:17;9.30;;;3.70;;
35558;SDS011;21661;50.794;-1.066;2023-05-21T14:05:43;6.68;;;4.00;;
35558;SDS011;21661;50.794;-1.066;2023-05-21T14:08:09;7.93;;;4.28;;
35558;SDS011;21661;50.794;-1.066;2023-05-21T14:10:35;5.82;;;3.65;;
35558;SDS011;21661;50.794;-1.066;2023-05-21T14:13:01;7.03;;;4.25;;
35558;SDS011;21661;50.794;-1.066;2023-05-21T14:15:27;7.82;;;4.20;;
35558;SDS011;21661;50.794;-1.066;2023-05-21T14:17:52;7.35;;;4.10;;
35558;SDS011;21661;50.794;-1.066;2023-05-21T14:20:18;12.10;;;4.40;;
35558;SDS011;21661;50.794;-1.066;2023-05-21T14:22:44;6.88;;;4.03;;
35558;SDS011;21661;50.794;-1.066;2023-05-21T14:25:10;6.68;;;3.75;;
35558;SDS011;21661;50.794;-1.066;2023-05-21T14:27:36;8.25;;;4.00;;
35558;SDS011;21661;50.794;-1.066;2023-05-21T14:30:02;8.57;;;4.10;;
35558;SDS011;21661;50.794;-1.066;2023-05-21T14:32:28;8.00;;;4.00;;
35558;SDS011;21661;50.794;-1.066;2023-05-21T14:34:54;7.97;;;3.67;;
35558;SDS011;21661;50.794;-1.066;2023-05-21T14:37:20;6.18;;;4.15;;
35558;SDS011;21661;50.794;-1.066;2023-05-21T14:39:46;7.60;;;3.63;;
35558;SDS011;21661;50.794;-1.066;2023-05-21T14:42:11;8.02;;;4.30;;
35558;SDS011;21661;50.794;-1.066;2023-05-21T14:44:37;9.38;;;3.70;;
35558;SDS011;21661;50.794;-1.066;2023-05-21T14:47:03;8.52;;;4.05;;
35558;SDS011;21661;50.794;-1.066;2023-05-21T14:49:28;9.98;;;3.95;;
35558;SDS011;21661;50.794;-1.066;2023-05-21T14:51:54;7.95;;;3.60;;
35558;SDS011;21661;50.794;-1.066;2023-05-21T14:54:20;8.60;;;4.35;;
35558;SDS011;21661;50.794;-1.066;2023-05-21T14:56:45;9.40;;;4.03;;
35558;SDS011;21661;50.794;-1.066;2023-05-21T14:59:11;8.27;;;4.20;;
35558;SDS011;21661;50.794;-1.066;2023-05-21T15:01:37;7.60;;;3.33;;
35558;SDS011;21661;50.794;-1.066;2023-05-21T15:04:02;9.00;;;3.80;;
35558;SDS011;21661;50.794;-1.066;2023-05-21T15:06:28;7.88;;;3.38;;
35558;SDS011;21661;50.794;-1.066;2023-05-21T15:08:54;8.07;;;3.55;;
35558;SDS011;21661;50.794;-1.066;2023-05-21T15:11:20;7.65;;;3.55;;
35558;SDS011;21661;50.794;-1.066;2023-05-21T15:13:45;6.75;;;3.40;;
35558;SDS011;21661;50.794;-1.066;2023-05-21T15:16:11;9.43;;;4.00;;